sensor_id;sensor_type;location;lat;lon;timestamp;temperature;humidity
21255;DHT22;10785;50.674;17.954;2023-05-07T00:02:01;8.50;99.90
21255;DHT22;10785;50.674;17.954;2023-05-07T00:04:31;8.40;99.90
21255;DHT22;10785;50.674;17.954;2023-05-07T00:07:14;8.40;99.90
21255;DHT22;10785;50.674;17.954;2023-05-07T00:10:10;8.40;99.90
21255;DHT22;10785;50.674;17.954;2023-05-07T00:12:55;8.40;99.90
21255;DHT22;10785;50.674;17.954;2023-05-07T00:15:23;8.40;99.90
21255;DHT22;10785;50.674;17.954;2023-05-07T00:17:53;8.40;99.90
21255;DHT22;10785;50.674;17.954;2023-05-07T00:20:21;8.40;99.90
21255;DHT22;10785;50.674;17.954;2023-05-07T00:22:50;8.40;99.90
21255;DHT22;10785;50.674;17.954;2023-05-07T00:28:01;8.40;99.90
21255;DHT22;10785;50.674;17.954;2023-05-07T00:30:31;8.40;99.90
21255;DHT22;10785;50.674;17.954;2023-05-07T00:33:00;8.40;99.90
21255;DHT22;10785;50.674;17.954;2023-05-07T00:35:30;8.40;99.90
21255;DHT22;10785;50.674;17.954;2023-05-07T00:37:58;8.40;99.90
21255;DHT22;10785;50.674;17.954;2023-05-07T00:40:27;8.40;99.90
21255;DHT22;10785;50.674;17.954;2023-05-07T00:42:55;8.40;99.90
21255;DHT22;10785;50.674;17.954;2023-05-07T00:45:27;8.30;99.90
21255;DHT22;10785;50.674;17.954;2023-05-07T00:47:59;8.30;99.90
21255;DHT22;10785;50.674;17.954;2023-05-07T00:50:29;8.30;99.90
21255;DHT22;10785;50.674;17.954;2023-05-07T00:52:58;8.30;99.90
21255;DHT22;10785;50.674;17.954;2023-05-07T00:58:50;8.30;99.90
21255;DHT22;10785;50.674;17.954;2023-05-07T01:01:21;8.30;99.90
21255;DHT22;10785;50.674;17.954;2023-05-07T01:03:49;8.30;99.90
21255;DHT22;10785;50.674;17.954;2023-05-07T01:06:19;8.30;99.90
21255;DHT22;10785;50.674;17.954;2023-05-07T01:08:49;8.30;99.90
21255;DHT22;10785;50.674;17.954;2023-05-07T01:11:25;8.30;99.90
21255;DHT22;10785;50.674;17.954;2023-05-07T01:14:04;8.20;99.90
21255;DHT22;10785;50.674;17.954;2023-05-07T01:16:35;8.20;99.90
21255;DHT22;10785;50.674;17.954;2023-05-07T01:19:14;8.10;99.90
21255;DHT22;10785;50.674;17.954;2023-05-07T01:21:52;8.10;99.90
21255;DHT22;10785;50.674;17.954;2023-05-07T01:25:01;8.10;99.90
21255;DHT22;10785;50.674;17.954;2023-05-07T01:27:32;8.00;99.90
21255;DHT22;10785;50.674;17.954;2023-05-07T01:30:03;8.00;99.90
21255;DHT22;10785;50.674;17.954;2023-05-07T01:32:37;8.00;99.90
21255;DHT22;10785;50.674;17.954;2023-05-07T01:35:07;8.00;99.90
21255;DHT22;10785;50.674;17.954;2023-05-07T01:37:38;8.00;99.90
21255;DHT22;10785;50.674;17.954;2023-05-07T01:40:17;8.00;99.90
21255;DHT22;10785;50.674;17.954;2023-05-07T01:42:47;7.90;99.90
21255;DHT22;10785;50.674;17.954;2023-05-07T01:45:16;7.90;99.90
21255;DHT22;10785;50.674;17.954;2023-05-07T01:47:45;7.90;99.90
21255;DHT22;10785;50.674;17.954;2023-05-07T01:50:16;7.90;99.90
21255;DHT22;10785;50.674;17.954;2023-05-07T01:52:46;7.90;99.90
21255;DHT22;10785;50.674;17.954;2023-05-07T01:55:17;7.80;99.90
21255;DHT22;10785;50.674;17.954;2023-05-07T01:57:47;7.80;99.90
21255;DHT22;10785;50.674;17.954;2023-05-07T02:00:17;7.70;99.90
21255;DHT22;10785;50.674;17.954;2023-05-07T02:02:46;7.70;99.90
21255;DHT22;10785;50.674;17.954;2023-05-07T02:05:24;7.70;99.90
21255;DHT22;10785;50.674;17.954;2023-05-07T02:08:05;7.70;99.90
21255;DHT22;10785;50.674;17.954;2023-05-07T02:10:36;7.70;99.90
21255;DHT22;10785;50.674;17.954;2023-05-07T02:13:06;7.70;99.90
21255;DHT22;10785;50.674;17.954;2023-05-07T02:15:35;7.60;99.90
21255;DHT22;10785;50.674;17.954;2023-05-07T02:18:06;7.60;99.90
21255;DHT22;10785;50.674;17.954;2023-05-07T02:20:35;7.60;99.90
21255;DHT22;10785;50.674;17.954;2023-05-07T02:23:04;7.60;99.90
21255;DHT22;10785;50.674;17.954;2023-05-07T02:25:32;7.60;99.90
21255;DHT22;10785;50.674;17.954;2023-05-07T02:28:02;7.60;99.90
21255;DHT22;10785;50.674;17.954;2023-05-07T02:30:46;7.70;99.90
21255;DHT22;10785;50.674;17.954;2023-05-07T02:33:15;7.60;99.90
21255;DHT22;10785;50.674;17.954;2023-05-07T02:35:44;7.70;99.90
21255;DHT22;10785;50.674;17.954;2023-05-07T02:38:14;7.60;99.90
21255;DHT22;10785;50.674;17.954;2023-05-07T02:40:44;7.60;99.90
21255;DHT22;10785;50.674;17.954;2023-05-07T02:43:14;7.70;99.90
21255;DHT22;10785;50.674;17.954;2023-05-07T02:45:47;7.70;99.90
21255;DHT22;10785;50.674;17.954;2023-05-07T02:48:17;7.60;99.90
21255;DHT22;10785;50.674;17.954;2023-05-07T02:50:46;7.60;99.90
21255;DHT22;10785;50.674;17.954;2023-05-07T02:53:15;7.60;99.90
21255;DHT22;10785;50.674;17.954;2023-05-07T02:55:44;7.60;99.90
21255;DHT22;10785;50.674;17.954;2023-05-07T02:58:14;7.70;99.90
21255;DHT22;10785;50.674;17.954;2023-05-07T03:00:47;7.60;99.90
21255;DHT22;10785;50.674;17.954;2023-05-07T03:04:28;7.60;99.90
21255;DHT22;10785;50.674;17.954;2023-05-07T03:06:57;7.60;99.90
21255;DHT22;10785;50.674;17.954;2023-05-07T03:09:26;7.60;99.90
21255;DHT22;10785;50.674;17.954;2023-05-07T03:11:55;7.50;99.90
21255;DHT22;10785;50.674;17.954;2023-05-07T03:14:26;7.50;99.90
21255;DHT22;10785;50.674;17.954;2023-05-07T03:16:54;7.50;99.90
21255;DHT22;10785;50.674;17.954;2023-05-07T03:19:25;7.50;99.90
21255;DHT22;10785;50.674;17.954;2023-05-07T03:21:57;7.50;99.90
21255;DHT22;10785;50.674;17.954;2023-05-07T03:24:25;7.50;99.90
21255;DHT22;10785;50.674;17.954;2023-05-07T03:26:54;7.40;99.90
21255;DHT22;10785;50.674;17.954;2023-05-07T03:29:27;7.50;99.90
21255;DHT22;10785;50.674;17.954;2023-05-07T03:32:19;7.40;99.90
21255;DHT22;10785;50.674;17.954;2023-05-07T03:34:48;7.40;99.90
21255;DHT22;10785;50.674;17.954;2023-05-07T03:37:17;7.40;99.90
21255;DHT22;10785;50.674;17.954;2023-05-07T03:39:45;7.40;99.90
21255;DHT22;10785;50.674;17.954;2023-05-07T03:42:14;7.40;99.90
21255;DHT22;10785;50.674;17.954;2023-05-07T03:44:45;7.40;99.90
21255;DHT22;10785;50.674;17.954;2023-05-07T03:47:14;7.40;99.90
21255;DHT22;10785;50.674;17.954;2023-05-07T03:49:44;7.30;99.90
21255;DHT22;10785;50.674;17.954;2023-05-07T03:52:13;7.40;99.90
21255;DHT22;10785;50.674;17.954;2023-05-07T03:54:42;7.40;99.90
21255;DHT22;10785;50.674;17.954;2023-05-07T03:57:14;7.40;99.90
21255;DHT22;10785;50.674;17.954;2023-05-07T03:59:42;7.30;99.90
21255;DHT22;10785;50.674;17.954;2023-05-07T04:02:12;7.30;99.90
21255;DHT22;10785;50.674;17.954;2023-05-07T04:04:41;7.40;99.90
21255;DHT22;10785;50.674;17.954;2023-05-07T04:07:10;7.40;99.90
21255;DHT22;10785;50.674;17.954;2023-05-07T04:09:43;7.40;99.90
21255;DHT22;10785;50.674;17.954;2023-05-07T04:12:11;7.40;99.90
21255;DHT22;10785;50.674;17.954;2023-05-07T04:14:40;7.40;99.90
21255;DHT22;10785;50.674;17.954;2023-05-07T04:17:09;7.30;99.90
21255;DHT22;10785;50.674;17.954;2023-05-07T04:49:08;7.40;99.90
21255;DHT22;10785;50.674;17.954;2023-05-07T04:51:37;7.40;99.90
21255;DHT22;10785;50.674;17.954;2023-05-07T04:54:13;7.50;99.90
21255;DHT22;10785;50.674;17.954;2023-05-07T04:56:42;7.40;99.90
21255;DHT22;10785;50.674;17.954;2023-05-07T04:59:11;7.30;99.90
21255;DHT22;10785;50.674;17.954;2023-05-07T05:01:40;7.30;99.90
21255;DHT22;10785;50.674;17.954;2023-05-07T05:04:26;7.30;99.90
21255;DHT22;10785;50.674;17.954;2023-05-07T05:07:08;7.30;99.90
21255;DHT22;10785;50.674;17.954;2023-05-07T05:09:38;7.30;99.90
21255;DHT22;10785;50.674;17.954;2023-05-07T05:12:07;7.30;99.90
21255;DHT22;10785;50.674;17.954;2023-05-07T05:14:37;7.40;99.90
21255;DHT22;10785;50.674;17.954;2023-05-07T05:17:07;7.40;99.90
21255;DHT22;10785;50.674;17.954;2023-05-07T05:19:38;7.40;99.90
21255;DHT22;10785;50.674;17.954;2023-05-07T05:22:07;7.40;99.90
21255;DHT22;10785;50.674;17.954;2023-05-07T05:24:36;7.40;99.90
21255;DHT22;10785;50.674;17.954;2023-05-07T05:27:05;7.40;99.90
21255;DHT22;10785;50.674;17.954;2023-05-07T05:29:34;7.40;99.90
21255;DHT22;10785;50.674;17.954;2023-05-07T05:32:03;7.40;99.90
21255;DHT22;10785;50.674;17.954;2023-05-07T05:34:51;7.30;99.90
21255;DHT22;10785;50.674;17.954;2023-05-07T05:37:26;7.30;99.90
21255;DHT22;10785;50.674;17.954;2023-05-07T05:40:07;7.30;99.90
21255;DHT22;10785;50.674;17.954;2023-05-07T05:42:53;7.30;99.90
21255;DHT22;10785;50.674;17.954;2023-05-07T05:45:23;7.30;99.90
21255;DHT22;10785;50.674;17.954;2023-05-07T05:47:52;7.20;99.90
21255;DHT22;10785;50.674;17.954;2023-05-07T05:50:22;7.20;99.90
21255;DHT22;10785;50.674;17.954;2023-05-07T05:53:03;7.30;99.90
21255;DHT22;10785;50.674;17.954;2023-05-07T05:55:33;7.30;99.90
21255;DHT22;10785;50.674;17.954;2023-05-07T05:58:02;7.30;99.90
21255;DHT22;10785;50.674;17.954;2023-05-07T06:00:36;7.30;99.90
21255;DHT22;10785;50.674;17.954;2023-05-07T06:03:07;7.40;99.90
21255;DHT22;10785;50.674;17.954;2023-05-07T06:05:59;7.50;99.90
21255;DHT22;10785;50.674;17.954;2023-05-07T06:08:31;7.60;99.90
21255;DHT22;10785;50.674;17.954;2023-05-07T06:11:06;7.70;99.90
21255;DHT22;10785;50.674;17.954;2023-05-07T06:13:37;7.70;99.90
21255;DHT22;10785;50.674;17.954;2023-05-07T06:16:06;7.60;99.90
21255;DHT22;10785;50.674;17.954;2023-05-07T06:18:35;7.50;99.90
21255;DHT22;10785;50.674;17.954;2023-05-07T06:21:06;7.50;99.90
21255;DHT22;10785;50.674;17.954;2023-05-07T06:23:44;7.50;99.90
21255;DHT22;10785;50.674;17.954;2023-05-07T06:26:15;7.40;99.90
21255;DHT22;10785;50.674;17.954;2023-05-07T06:28:46;7.50;99.90
21255;DHT22;10785;50.674;17.954;2023-05-07T06:31:18;7.40;99.90
21255;DHT22;10785;50.674;17.954;2023-05-07T06:33:58;7.40;99.90
21255;DHT22;10785;50.674;17.954;2023-05-07T06:36:44;7.40;99.90
21255;DHT22;10785;50.674;17.954;2023-05-07T06:39:31;7.40;99.90
21255;DHT22;10785;50.674;17.954;2023-05-07T06:42:00;7.40;99.90
21255;DHT22;10785;50.674;17.954;2023-05-07T06:44:31;7.40;99.90
21255;DHT22;10785;50.674;17.954;2023-05-07T06:47:09;7.40;99.90
21255;DHT22;10785;50.674;17.954;2023-05-07T06:49:42;7.50;99.90
21255;DHT22;10785;50.674;17.954;2023-05-07T06:52:17;7.50;99.90
21255;DHT22;10785;50.674;17.954;2023-05-07T06:54:47;7.60;99.90
21255;DHT22;10785;50.674;17.954;2023-05-07T06:57:17;7.60;99.90
21255;DHT22;10785;50.674;17.954;2023-05-07T06:59:46;7.70;99.90
21255;DHT22;10785;50.674;17.954;2023-05-07T07:02:20;7.80;99.90
21255;DHT22;10785;50.674;17.954;2023-05-07T07:05:27;7.80;99.90
21255;DHT22;10785;50.674;17.954;2023-05-07T07:08:04;7.90;99.90
21255;DHT22;10785;50.674;17.954;2023-05-07T07:10:33;7.90;99.90
21255;DHT22;10785;50.674;17.954;2023-05-07T07:13:03;7.80;99.90
21255;DHT22;10785;50.674;17.954;2023-05-07T07:15:31;7.80;99.90
21255;DHT22;10785;50.674;17.954;2023-05-07T07:18:00;7.80;99.90
21255;DHT22;10785;50.674;17.954;2023-05-07T07:20:29;7.80;99.90
21255;DHT22;10785;50.674;17.954;2023-05-07T07:22:59;7.80;99.90
21255;DHT22;10785;50.674;17.954;2023-05-07T07:25:28;7.90;99.90
21255;DHT22;10785;50.674;17.954;2023-05-07T07:27:57;8.00;99.90
21255;DHT22;10785;50.674;17.954;2023-05-07T07:30:27;8.00;99.90
21255;DHT22;10785;50.674;17.954;2023-05-07T07:32:56;7.90;99.90
21255;DHT22;10785;50.674;17.954;2023-05-07T07:35:34;7.90;99.90
21255;DHT22;10785;50.674;17.954;2023-05-07T07:38:06;7.90;99.90
21255;DHT22;10785;50.674;17.954;2023-05-07T07:40:35;7.70;99.90
21255;DHT22;10785;50.674;17.954;2023-05-07T07:43:05;7.70;99.90
21255;DHT22;10785;50.674;17.954;2023-05-07T07:45:34;7.70;99.90
21255;DHT22;10785;50.674;17.954;2023-05-07T07:48:03;7.70;99.90
21255;DHT22;10785;50.674;17.954;2023-05-07T07:50:36;7.80;99.90
21255;DHT22;10785;50.674;17.954;2023-05-07T07:53:15;7.70;99.90
21255;DHT22;10785;50.674;17.954;2023-05-07T07:55:44;7.80;99.90
21255;DHT22;10785;50.674;17.954;2023-05-07T07:58:18;7.80;99.90
21255;DHT22;10785;50.674;17.954;2023-05-07T08:01:15;7.90;99.90
21255;DHT22;10785;50.674;17.954;2023-05-07T08:03:54;7.90;99.90
21255;DHT22;10785;50.674;17.954;2023-05-07T08:06:35;7.80;99.90
21255;DHT22;10785;50.674;17.954;2023-05-07T08:09:05;7.80;99.90
21255;DHT22;10785;50.674;17.954;2023-05-07T08:11:34;7.80;99.90
21255;DHT22;10785;50.674;17.954;2023-05-07T08:14:03;7.70;99.90
21255;DHT22;10785;50.674;17.954;2023-05-07T08:16:32;7.80;99.90
21255;DHT22;10785;50.674;17.954;2023-05-07T08:19:01;7.80;99.90
21255;DHT22;10785;50.674;17.954;2023-05-07T08:21:31;7.80;99.90
21255;DHT22;10785;50.674;17.954;2023-05-07T08:24:01;8.00;99.90
21255;DHT22;10785;50.674;17.954;2023-05-07T08:26:31;8.10;99.90
21255;DHT22;10785;50.674;17.954;2023-05-07T08:29:00;8.20;99.90
21255;DHT22;10785;50.674;17.954;2023-05-07T08:31:28;8.20;99.90
21255;DHT22;10785;50.674;17.954;2023-05-07T08:33:57;8.10;99.90
21255;DHT22;10785;50.674;17.954;2023-05-07T08:36:26;7.90;99.90
21255;DHT22;10785;50.674;17.954;2023-05-07T08:38:56;8.00;99.90
21255;DHT22;10785;50.674;17.954;2023-05-07T08:41:25;8.00;99.90
21255;DHT22;10785;50.674;17.954;2023-05-07T08:43:58;8.00;99.90
21255;DHT22;10785;50.674;17.954;2023-05-07T08:46:31;8.00;99.90
21255;DHT22;10785;50.674;17.954;2023-05-07T08:49:00;8.30;99.90
21255;DHT22;10785;50.674;17.954;2023-05-07T08:51:29;8.40;99.90
21255;DHT22;10785;50.674;17.954;2023-05-07T08:53:59;8.50;99.90
21255;DHT22;10785;50.674;17.954;2023-05-07T08:56:32;8.80;99.90
21255;DHT22;10785;50.674;17.954;2023-05-07T08:59:03;8.90;99.90
21255;DHT22;10785;50.674;17.954;2023-05-07T09:01:32;9.20;99.90
21255;DHT22;10785;50.674;17.954;2023-05-07T09:04:04;9.40;99.90
21255;DHT22;10785;50.674;17.954;2023-05-07T09:06:34;9.70;99.90
21255;DHT22;10785;50.674;17.954;2023-05-07T09:09:05;9.50;99.90
21255;DHT22;10785;50.674;17.954;2023-05-07T09:11:35;9.00;99.90
21255;DHT22;10785;50.674;17.954;2023-05-07T09:14:05;8.90;99.90
21255;DHT22;10785;50.674;17.954;2023-05-07T09:16:39;8.80;99.90
21255;DHT22;10785;50.674;17.954;2023-05-07T09:19:12;8.80;99.90
21255;DHT22;10785;50.674;17.954;2023-05-07T09:21:44;8.90;99.90
21255;DHT22;10785;50.674;17.954;2023-05-07T09:24:15;9.00;99.90
21255;DHT22;10785;50.674;17.954;2023-05-07T09:26:44;8.90;99.90
21255;DHT22;10785;50.674;17.954;2023-05-07T09:29:16;9.00;99.90
21255;DHT22;10785;50.674;17.954;2023-05-07T09:31:45;9.30;99.90
21255;DHT22;10785;50.674;17.954;2023-05-07T09:34:16;9.40;99.90
21255;DHT22;10785;50.674;17.954;2023-05-07T09:36:46;9.10;99.90
21255;DHT22;10785;50.674;17.954;2023-05-07T09:39:15;8.90;99.90
21255;DHT22;10785;50.674;17.954;2023-05-07T09:41:45;9.00;99.90
21255;DHT22;10785;50.674;17.954;2023-05-07T09:44:22;9.10;99.90
21255;DHT22;10785;50.674;17.954;2023-05-07T09:46:54;9.20;99.90
21255;DHT22;10785;50.674;17.954;2023-05-07T09:49:34;9.00;99.90
21255;DHT22;10785;50.674;17.954;2023-05-07T09:52:07;8.80;99.90
21255;DHT22;10785;50.674;17.954;2023-05-07T09:54:43;8.90;99.90
21255;DHT22;10785;50.674;17.954;2023-05-07T09:57:17;9.10;99.90
21255;DHT22;10785;50.674;17.954;2023-05-07T09:59:54;9.40;99.90
21255;DHT22;10785;50.674;17.954;2023-05-07T10:02:30;9.30;99.90
21255;DHT22;10785;50.674;17.954;2023-05-07T10:05:00;9.30;99.90
21255;DHT22;10785;50.674;17.954;2023-05-07T10:07:32;9.10;99.90
21255;DHT22;10785;50.674;17.954;2023-05-07T10:10:07;8.90;99.90
21255;DHT22;10785;50.674;17.954;2023-05-07T10:12:40;8.70;99.90
21255;DHT22;10785;50.674;17.954;2023-05-07T10:15:19;8.50;99.90
21255;DHT22;10785;50.674;17.954;2023-05-07T10:17:51;8.50;99.90
21255;DHT22;10785;50.674;17.954;2023-05-07T10:20:23;8.50;99.90
21255;DHT22;10785;50.674;17.954;2023-05-07T10:22:56;8.60;99.90
21255;DHT22;10785;50.674;17.954;2023-05-07T10:25:33;8.90;99.90
21255;DHT22;10785;50.674;17.954;2023-05-07T10:28:10;9.00;99.90
21255;DHT22;10785;50.674;17.954;2023-05-07T10:30:54;9.10;99.90
21255;DHT22;10785;50.674;17.954;2023-05-07T10:33:36;9.10;99.90
21255;DHT22;10785;50.674;17.954;2023-05-07T10:36:06;9.00;99.90
21255;DHT22;10785;50.674;17.954;2023-05-07T10:38:36;8.90;99.90
21255;DHT22;10785;50.674;17.954;2023-05-07T10:41:05;8.70;99.90
21255;DHT22;10785;50.674;17.954;2023-05-07T10:43:39;8.70;99.90
21255;DHT22;10785;50.674;17.954;2023-05-07T10:46:33;8.70;99.90
21255;DHT22;10785;50.674;17.954;2023-05-07T10:52:24;8.50;99.90
21255;DHT22;10785;50.674;17.954;2023-05-07T10:55:21;8.70;99.90
21255;DHT22;10785;50.674;17.954;2023-05-07T10:58:24;8.90;99.90
21255;DHT22;10785;50.674;17.954;2023-05-07T11:01:11;9.10;99.90
21255;DHT22;10785;50.674;17.954;2023-05-07T11:04:14;9.20;99.90
21255;DHT22;10785;50.674;17.954;2023-05-07T11:07:24;9.30;99.90
21255;DHT22;10785;50.674;17.954;2023-05-07T11:09:57;9.30;99.90
21255;DHT22;10785;50.674;17.954;2023-05-07T11:12:55;9.20;99.90
21255;DHT22;10785;50.674;17.954;2023-05-07T11:15:35;9.10;99.90
21255;DHT22;10785;50.674;17.954;2023-05-07T11:18:12;9.00;99.90
21255;DHT22;10785;50.674;17.954;2023-05-07T11:49:50;9.40;99.90
21255;DHT22;10785;50.674;17.954;2023-05-07T11:52:21;9.40;99.90
21255;DHT22;10785;50.674;17.954;2023-05-07T11:54:50;9.40;99.90
21255;DHT22;10785;50.674;17.954;2023-05-07T11:57:19;9.40;99.90
21255;DHT22;10785;50.674;17.954;2023-05-07T11:59:52;9.30;99.90
21255;DHT22;10785;50.674;17.954;2023-05-07T12:02:21;9.30;99.90
21255;DHT22;10785;50.674;17.954;2023-05-07T12:04:54;9.30;99.90
21255;DHT22;10785;50.674;17.954;2023-05-07T12:07:24;9.30;99.90
21255;DHT22;10785;50.674;17.954;2023-05-07T12:09:53;9.30;99.90
21255;DHT22;10785;50.674;17.954;2023-05-07T12:12:22;9.30;99.90
21255;DHT22;10785;50.674;17.954;2023-05-07T12:14:51;9.30;99.90
21255;DHT22;10785;50.674;17.954;2023-05-07T12:17:20;9.20;99.90
21255;DHT22;10785;50.674;17.954;2023-05-07T12:19:49;9.20;99.90
21255;DHT22;10785;50.674;17.954;2023-05-07T12:22:20;9.00;99.90
21255;DHT22;10785;50.674;17.954;2023-05-07T12:24:56;9.00;99.90
21255;DHT22;10785;50.674;17.954;2023-05-07T12:27:26;9.00;99.90
21255;DHT22;10785;50.674;17.954;2023-05-07T12:29:54;9.00;99.90
21255;DHT22;10785;50.674;17.954;2023-05-07T12:32:25;9.00;99.90
21255;DHT22;10785;50.674;17.954;2023-05-07T12:34:54;9.10;99.90
21255;DHT22;10785;50.674;17.954;2023-05-07T12:37:25;9.20;99.90
21255;DHT22;10785;50.674;17.954;2023-05-07T12:40:05;9.10;99.90
21255;DHT22;10785;50.674;17.954;2023-05-07T12:42:36;9.20;99.90
21255;DHT22;10785;50.674;17.954;2023-05-07T12:45:09;9.30;99.90
21255;DHT22;10785;50.674;17.954;2023-05-07T12:47:38;9.50;99.90
21255;DHT22;10785;50.674;17.954;2023-05-07T12:50:07;9.70;99.90
21255;DHT22;10785;50.674;17.954;2023-05-07T12:52:37;9.90;99.90
21255;DHT22;10785;50.674;17.954;2023-05-07T12:55:07;10.00;99.90
21255;DHT22;10785;50.674;17.954;2023-05-07T12:57:40;9.90;99.90
21255;DHT22;10785;50.674;17.954;2023-05-07T13:00:09;9.70;99.90
21255;DHT22;10785;50.674;17.954;2023-05-07T13:02:39;9.80;99.90
21255;DHT22;10785;50.674;17.954;2023-05-07T13:05:08;9.80;99.90
21255;DHT22;10785;50.674;17.954;2023-05-07T13:07:52;9.80;99.90
21255;DHT22;10785;50.674;17.954;2023-05-07T13:10:22;9.60;99.90
21255;DHT22;10785;50.674;17.954;2023-05-07T13:12:51;9.60;99.90
21255;DHT22;10785;50.674;17.954;2023-05-07T13:15:20;9.40;99.90
21255;DHT22;10785;50.674;17.954;2023-05-07T13:17:49;9.40;99.90
21255;DHT22;10785;50.674;17.954;2023-05-07T13:20:18;9.30;99.90
21255;DHT22;10785;50.674;17.954;2023-05-07T13:38:52;8.80;99.90
21255;DHT22;10785;50.674;17.954;2023-05-07T13:41:21;8.80;99.90
21255;DHT22;10785;50.674;17.954;2023-05-07T13:43:49;9.00;99.90
21255;DHT22;10785;50.674;17.954;2023-05-07T13:46:18;9.10;99.90
21255;DHT22;10785;50.674;17.954;2023-05-07T13:48:47;9.20;99.90
21255;DHT22;10785;50.674;17.954;2023-05-07T13:51:17;9.30;99.90
21255;DHT22;10785;50.674;17.954;2023-05-07T13:53:46;9.40;99.90
21255;DHT22;10785;50.674;17.954;2023-05-07T13:56:16;9.50;99.90
21255;DHT22;10785;50.674;17.954;2023-05-07T13:58:45;9.60;99.90
21255;DHT22;10785;50.674;17.954;2023-05-07T14:01:26;9.70;99.90
21255;DHT22;10785;50.674;17.954;2023-05-07T14:03:56;9.80;99.90
21255;DHT22;10785;50.674;17.954;2023-05-07T14:06:27;9.80;99.90
21255;DHT22;10785;50.674;17.954;2023-05-07T14:08:55;9.80;99.90
21255;DHT22;10785;50.674;17.954;2023-05-07T14:11:27;9.80;99.90
21255;DHT22;10785;50.674;17.954;2023-05-07T14:13:55;9.80;99.90
21255;DHT22;10785;50.674;17.954;2023-05-07T14:16:25;9.70;99.90
21255;DHT22;10785;50.674;17.954;2023-05-07T14:18:54;9.60;99.90
21255;DHT22;10785;50.674;17.954;2023-05-07T14:21:25;9.60;99.90
21255;DHT22;10785;50.674;17.954;2023-05-07T14:36:46;9.60;99.90
21255;DHT22;10785;50.674;17.954;2023-05-07T14:39:15;9.60;99.90
21255;DHT22;10785;50.674;17.954;2023-05-07T14:41:43;9.60;99.90
21255;DHT22;10785;50.674;17.954;2023-05-07T14:44:12;9.60;99.90
21255;DHT22;10785;50.674;17.954;2023-05-07T14:46:41;9.50;99.90
21255;DHT22;10785;50.674;17.954;2023-05-07T14:49:09;9.50;99.90
21255;DHT22;10785;50.674;17.954;2023-05-07T14:51:49;9.50;99.90
21255;DHT22;10785;50.674;17.954;2023-05-07T14:54:18;9.40;99.90
21255;DHT22;10785;50.674;17.954;2023-05-07T14:56:46;9.40;99.90
21255;DHT22;10785;50.674;17.954;2023-05-07T14:59:15;9.50;99.90
21255;DHT22;10785;50.674;17.954;2023-05-07T15:01:46;9.60;99.90
21255;DHT22;10785;50.674;17.954;2023-05-07T15:04:14;9.60;99.90
21255;DHT22;10785;50.674;17.954;2023-05-07T15:06:43;9.70;99.90
21255;DHT22;10785;50.674;17.954;2023-05-07T15:09:14;9.70;99.90
21255;DHT22;10785;50.674;17.954;2023-05-07T15:11:43;9.70;99.70
21255;DHT22;10785;50.674;17.954;2023-05-07T15:14:12;9.70;99.70
21255;DHT22;10785;50.674;17.954;2023-05-07T15:16:40;9.60;97.90
21255;DHT22;10785;50.674;17.954;2023-05-07T15:19:09;9.70;98.20
21255;DHT22;10785;50.674;17.954;2023-05-07T15:21:38;9.70;97.90
21255;DHT22;10785;50.674;17.954;2023-05-07T15:24:07;9.60;97.30
21255;DHT22;10785;50.674;17.954;2023-05-07T15:26:45;9.60;97.30
21255;DHT22;10785;50.674;17.954;2023-05-07T15:29:13;9.50;98.50
21255;DHT22;10785;50.674;17.954;2023-05-07T15:31:42;9.50;99.70
21255;DHT22;10785;50.674;17.954;2023-05-07T15:34:11;9.50;99.90
21255;DHT22;10785;50.674;17.954;2023-05-07T15:36:49;9.40;99.90
21255;DHT22;10785;50.674;17.954;2023-05-07T15:39:18;9.30;99.90
21255;DHT22;10785;50.674;17.954;2023-05-07T15:41:51;9.20;99.90
21255;DHT22;10785;50.674;17.954;2023-05-07T15:44:19;9.20;99.90
21255;DHT22;10785;50.674;17.954;2023-05-07T15:46:48;9.20;99.90
21255;DHT22;10785;50.674;17.954;2023-05-07T15:49:17;9.20;99.90
21255;DHT22;10785;50.674;17.954;2023-05-07T15:51:45;9.20;99.90
21255;DHT22;10785;50.674;17.954;2023-05-07T15:54:14;9.30;99.90
21255;DHT22;10785;50.674;17.954;2023-05-07T15:56:44;9.30;99.90
21255;DHT22;10785;50.674;17.954;2023-05-07T15:59:15;9.30;99.90
21255;DHT22;10785;50.674;17.954;2023-05-07T16:01:44;9.30;99.90
21255;DHT22;10785;50.674;17.954;2023-05-07T16:04:13;9.30;99.90
21255;DHT22;10785;50.674;17.954;2023-05-07T16:06:41;9.20;99.90
21255;DHT22;10785;50.674;17.954;2023-05-07T16:09:18;9.30;99.90
21255;DHT22;10785;50.674;17.954;2023-05-07T16:11:48;9.30;99.90
21255;DHT22;10785;50.674;17.954;2023-05-07T16:14:18;9.30;99.90
21255;DHT22;10785;50.674;17.954;2023-05-07T16:16:47;9.20;99.90
21255;DHT22;10785;50.674;17.954;2023-05-07T16:19:16;9.20;99.90
21255;DHT22;10785;50.674;17.954;2023-05-07T16:21:45;9.20;99.90
21255;DHT22;10785;50.674;17.954;2023-05-07T16:24:14;9.20;99.90
21255;DHT22;10785;50.674;17.954;2023-05-07T16:26:43;9.20;99.90
21255;DHT22;10785;50.674;17.954;2023-05-07T16:29:12;9.20;99.90
21255;DHT22;10785;50.674;17.954;2023-05-07T16:31:43;9.10;99.90
21255;DHT22;10785;50.674;17.954;2023-05-07T16:34:12;9.10;99.90
21255;DHT22;10785;50.674;17.954;2023-05-07T16:36:40;9.10;99.90
21255;DHT22;10785;50.674;17.954;2023-05-07T16:39:09;9.10;99.90
21255;DHT22;10785;50.674;17.954;2023-05-07T16:41:38;9.10;99.50
21255;DHT22;10785;50.674;17.954;2023-05-07T16:44:06;9.10;97.70
21255;DHT22;10785;50.674;17.954;2023-05-07T16:46:36;9.00;97.20
21255;DHT22;10785;50.674;17.954;2023-05-07T16:49:06;9.00;98.50
21255;DHT22;10785;50.674;17.954;2023-05-07T16:51:34;9.00;99.30
21255;DHT22;10785;50.674;17.954;2023-05-07T16:54:03;9.00;99.80
21255;DHT22;10785;50.674;17.954;2023-05-07T16:56:32;9.00;99.90
21255;DHT22;10785;50.674;17.954;2023-05-07T16:59:01;9.00;99.90
21255;DHT22;10785;50.674;17.954;2023-05-07T17:01:30;8.90;99.90
21255;DHT22;10785;50.674;17.954;2023-05-07T17:03:59;8.90;99.90
21255;DHT22;10785;50.674;17.954;2023-05-07T17:06:29;8.90;99.90
21255;DHT22;10785;50.674;17.954;2023-05-07T17:08:58;8.90;99.90
21255;DHT22;10785;50.674;17.954;2023-05-07T17:11:26;8.90;99.90
21255;DHT22;10785;50.674;17.954;2023-05-07T17:13:57;8.90;99.90
21255;DHT22;10785;50.674;17.954;2023-05-07T17:16:26;8.90;99.90
21255;DHT22;10785;50.674;17.954;2023-05-07T17:18:54;8.80;99.90
21255;DHT22;10785;50.674;17.954;2023-05-07T17:21:23;8.70;99.90
21255;DHT22;10785;50.674;17.954;2023-05-07T17:23:53;8.80;99.90
21255;DHT22;10785;50.674;17.954;2023-05-07T17:26:21;8.70;99.90
21255;DHT22;10785;50.674;17.954;2023-05-07T17:28:50;8.70;99.90
21255;DHT22;10785;50.674;17.954;2023-05-07T17:31:19;8.70;99.90
21255;DHT22;10785;50.674;17.954;2023-05-07T17:33:47;8.70;99.90
21255;DHT22;10785;50.674;17.954;2023-05-07T17:36:16;8.70;99.90
21255;DHT22;10785;50.674;17.954;2023-05-07T17:38:45;8.60;99.90